createdAt,value
2023-01-10T00:00:35.407Z,11.23
2023-01-10T00:03:21.781Z,12.37
2023-01-10T00:06:08.565Z,9.83
2023-01-10T00:08:54.941Z,13.50
2023-01-10T00:11:58.683Z,14.30
2023-01-10T00:14:46.458Z,11.60
2023-01-10T00:17:33.357Z,14.30
2023-01-10T00:20:20.737Z,9.63
2023-01-10T00:23:07.914Z,9.17
2023-01-10T00:25:54.274Z,10.63
2023-01-10T00:28:40.959Z,9.77
2023-01-10T00:31:28.609Z,11.83
2023-01-10T00:34:15.937Z,14.43
2023-01-10T00:37:02.752Z,10.77
2023-01-10T00:39:49.115Z,11.90
2023-01-10T00:42:52.936Z,9.63
2023-01-10T00:45:39.727Z,13.23
2023-01-10T00:48:27.576Z,14.27
2023-01-10T00:51:13.840Z,12.13
2023-01-10T00:54:00.228Z,8.83
2023-01-10T00:56:46.607Z,9.73
2023-01-10T00:59:33.004Z,10.20
2023-01-10T01:02:19.545Z,10.33
2023-01-10T01:05:08.681Z,8.13
2023-01-10T01:07:55.029Z,10.47
2023-01-10T01:10:41.522Z,9.80
2023-01-10T01:13:28.281Z,6.90
2023-01-10T01:16:14.663Z,10.87
2023-01-10T01:19:01.457Z,12.40
2023-01-10T01:21:49.168Z,7.77
2023-01-10T01:24:35.517Z,8.87
2023-01-10T01:27:21.896Z,9.63
2023-01-10T01:30:11.528Z,9.33
2023-01-10T01:32:58.175Z,6.07
2023-01-10T01:35:46.183Z,10.30
2023-01-10T01:38:33.986Z,13.37
2023-01-10T01:41:37.660Z,12.10
2023-01-10T01:44:24.658Z,7.10
2023-01-10T01:47:22.042Z,7.07
2023-01-10T01:50:17.483Z,7.27
2023-01-10T01:53:08.941Z,6.50
2023-01-10T01:56:00.963Z,7.83
2023-01-10T01:58:53.033Z,6.67
2023-01-10T02:01:43.044Z,5.43
2023-01-10T02:04:32.916Z,9.60
2023-01-10T02:07:20.537Z,6.13
2023-01-10T02:10:12.020Z,7.00
2023-01-10T02:13:03.448Z,6.57
2023-01-10T02:15:50.646Z,5.90
2023-01-10T02:18:40.597Z,2.63
2023-01-10T02:22:01.020Z,5.53
2023-01-10T02:25:24.023Z,2.97
2023-01-10T02:28:42.845Z,4.50
2023-01-10T02:31:56.009Z,5.27
2023-01-10T02:34:54.166Z,3.20
2023-01-10T02:37:50.903Z,6.23
2023-01-10T02:40:46.016Z,5.97
2023-01-10T02:43:35.738Z,4.43
2023-01-10T02:46:27.615Z,5.53
2023-01-10T02:49:14.298Z,5.07
2023-01-10T02:52:02.158Z,4.13
2023-01-10T02:54:50.118Z,8.30
2023-01-10T02:57:48.633Z,5.20
2023-01-10T03:00:45.175Z,9.93
2023-01-10T03:03:37.153Z,5.97
2023-01-10T03:06:30.543Z,6.40
2023-01-10T03:09:24.323Z,6.57
2023-01-10T03:12:19.964Z,9.17
2023-01-10T03:15:09.160Z,8.40
2023-01-10T03:17:58.070Z,5.80
2023-01-10T03:20:46.864Z,10.03
2023-01-10T03:23:34.840Z,8.07
2023-01-10T03:26:31.750Z,10.30
2023-01-10T03:29:25.492Z,9.00
2023-01-10T03:32:14.819Z,8.73
2023-01-10T03:35:03.137Z,6.20
2023-01-10T03:37:56.517Z,8.30
2023-01-10T03:40:49.368Z,7.70
2023-01-10T03:44:01.912Z,13.43
2023-01-10T03:46:53.058Z,12.83
2023-01-10T03:49:42.786Z,9.07
2023-01-10T03:52:31.186Z,8.23
2023-01-10T03:55:21.657Z,7.07
2023-01-10T03:58:08.425Z,7.87
2023-01-10T04:00:56.270Z,9.50
2023-01-10T04:03:42.815Z,13.20
2023-01-10T04:06:29.627Z,9.90
2023-01-10T04:09:15.952Z,14.67
2023-01-10T04:12:02.386Z,8.07
2023-01-10T04:14:48.856Z,8.67
2023-01-10T04:17:36.675Z,12.63
2023-01-10T04:20:26.599Z,8.67
2023-01-10T04:23:13.117Z,16.83
2023-01-10T04:25:59.459Z,11.57
2023-01-10T04:28:45.951Z,15.53
2023-01-10T04:31:32.364Z,10.20
2023-01-10T04:34:21.719Z,9.97
2023-01-10T04:37:08.451Z,12.03
2023-01-10T04:39:54.800Z,7.80
2023-01-10T04:42:41.143Z,12.43
2023-01-10T04:45:27.608Z,12.13
2023-01-10T04:48:14.186Z,14.30
2023-01-10T04:51:02.267Z,9.83
2023-01-10T04:53:48.748Z,10.87
2023-01-10T04:56:35.392Z,10.97
2023-01-10T04:59:21.790Z,12.80
2023-01-10T05:02:08.595Z,10.90
2023-01-10T05:04:55.348Z,13.10
2023-01-10T05:07:46.525Z,13.17
2023-01-10T05:10:33.062Z,10.30
2023-01-10T05:13:19.524Z,15.65
2023-01-10T05:16:06.468Z,10.17
2023-01-10T05:18:53.263Z,18.93
2023-01-10T05:21:39.653Z,11.80
2023-01-10T05:24:27.444Z,13.77
2023-01-10T05:27:13.922Z,10.53
2023-01-10T05:30:00.348Z,13.50
2023-01-10T05:32:46.769Z,10.27
2023-01-10T05:35:33.394Z,8.93
2023-01-10T05:38:20.269Z,8.80
2023-01-10T05:41:08.140Z,11.93
2023-01-10T05:43:54.702Z,13.00
2023-01-10T05:46:41.082Z,9.60
2023-01-10T05:49:27.455Z,14.70
2023-01-10T05:52:13.705Z,9.77
2023-01-10T05:55:00.205Z,13.40
2023-01-10T05:57:47.886Z,17.97
2023-01-10T06:00:34.429Z,16.20
2023-01-10T06:03:20.819Z,11.80
2023-01-10T06:06:07.497Z,10.90
2023-01-10T06:08:56.436Z,14.10
2023-01-10T06:11:43.030Z,13.27
2023-01-10T06:14:30.892Z,10.00
2023-01-10T06:17:17.206Z,10.30
2023-01-10T06:20:03.818Z,12.77
2023-01-10T06:22:50.222Z,12.73
2023-01-10T06:25:40.575Z,17.73
2023-01-10T06:28:27.223Z,10.07
2023-01-10T06:31:15.887Z,12.97
2023-01-10T06:34:02.443Z,11.80
2023-01-10T06:36:48.664Z,16.83
2023-01-10T06:39:35.033Z,14.03
2023-01-10T06:42:21.491Z,10.50
2023-01-10T06:45:08.506Z,11.50
2023-01-10T06:47:56.517Z,9.07
2023-01-10T06:50:42.910Z,12.53
2023-01-10T06:53:29.237Z,12.53
2023-01-10T06:56:15.608Z,11.33
2023-01-10T06:59:01.962Z,11.60
2023-01-10T07:01:48.691Z,9.03
2023-01-10T07:04:36.716Z,16.40
2023-01-10T07:07:23.205Z,10.43
2023-01-10T07:10:11.105Z,9.77
2023-01-10T07:12:58.481Z,8.33
2023-01-10T07:15:45.418Z,13.20
2023-01-10T07:18:32.420Z,13.20
2023-01-10T07:21:20.582Z,14.97
2023-01-10T07:24:08.080Z,9.13
2023-01-10T07:26:56.149Z,8.87
2023-01-10T07:29:42.489Z,14.90
2023-01-10T07:32:29.057Z,11.90
2023-01-10T07:35:15.858Z,15.10
2023-01-10T07:38:04.171Z,13.93
2023-01-10T07:40:50.736Z,9.33
2023-01-10T07:43:37.267Z,10.57
2023-01-10T07:46:23.654Z,9.73
2023-01-10T07:49:10.094Z,13.97
2023-01-10T07:51:56.751Z,10.27
2023-01-10T07:54:44.585Z,8.03
2023-01-10T07:57:30.975Z,17.40
2023-01-10T08:00:18.992Z,13.57
2023-01-10T08:03:06.498Z,12.43
2023-01-10T08:05:59.367Z,10.73
2023-01-10T08:08:45.725Z,45.43
2023-01-10T08:11:33.646Z,27.60
2023-01-10T08:14:20.672Z,27.97
2023-01-10T08:17:07.297Z,19.93
2023-01-10T08:19:53.594Z,24.00
2023-01-10T08:22:39.993Z,15.53
2023-01-10T08:25:26.821Z,23.00
2023-01-10T08:28:14.900Z,19.63
2023-01-10T08:31:06.580Z,22.50
2023-01-10T08:33:53.480Z,16.13
2023-01-10T08:36:39.877Z,23.33
2023-01-10T08:39:27.178Z,20.13
2023-01-10T08:42:13.510Z,16.13
2023-01-10T08:45:01.486Z,18.70
2023-01-10T08:47:47.753Z,12.00
2023-01-10T08:50:34.391Z,20.17
2023-01-10T08:53:21.079Z,15.40
2023-01-10T08:56:08.212Z,20.17
2023-01-10T08:58:54.665Z,17.87
2023-01-10T09:01:42.961Z,18.20
2023-01-10T09:04:32.082Z,17.90
2023-01-10T09:07:19.464Z,17.70
2023-01-10T09:10:07.309Z,11.10
2023-01-10T09:12:56.505Z,19.50
2023-01-10T09:15:44.110Z,17.03
2023-01-10T09:18:31.925Z,13.77
2023-01-10T09:21:18.581Z,13.57
2023-01-10T09:24:05.408Z,19.87
2023-01-10T09:26:51.873Z,15.20
2023-01-10T09:29:38.558Z,18.00
2023-01-10T09:32:25.373Z,13.80
2023-01-10T09:35:12.996Z,20.47
2023-01-10T09:38:01.746Z,23.63
2023-01-10T09:41:02.563Z,25.00
2023-01-10T09:44:01.364Z,18.93
2023-01-10T09:46:57.228Z,14.57
2023-01-10T09:49:51.660Z,16.83
2023-01-10T09:52:44.372Z,22.07
2023-01-10T09:55:33.951Z,17.07
2023-01-10T09:58:27.516Z,20.53
2023-01-10T10:01:18.208Z,19.23
2023-01-10T10:04:17.078Z,16.20
2023-01-10T10:07:04.706Z,10.83
2023-01-10T10:09:52.526Z,19.07
2023-01-10T10:12:44.754Z,20.03
2023-01-10T10:15:39.334Z,15.43
2023-01-10T10:18:32.779Z,12.80
2023-01-10T10:21:27.815Z,14.37
2023-01-10T10:24:32.717Z,17.67
2023-01-10T10:27:24.319Z,17.83
2023-01-10T10:30:28.005Z,20.97
2023-01-10T10:33:32.920Z,17.43
2023-01-10T10:36:24.307Z,22.07
2023-01-10T10:39:15.940Z,11.60
2023-01-10T10:42:04.449Z,14.57
2023-01-10T10:44:56.384Z,20.10
2023-01-10T10:47:49.990Z,14.67
2023-01-10T10:50:42.383Z,19.40
2023-01-10T10:53:29.291Z,22.57
2023-01-10T10:56:22.485Z,15.57
2023-01-10T10:59:09.513Z,18.97
2023-01-10T11:01:57.408Z,16.73
2023-01-10T11:04:44.277Z,18.00
2023-01-10T11:07:35.211Z,13.77
2023-01-10T11:10:38.537Z,15.77
2023-01-10T11:13:36.513Z,13.23
2023-01-10T11:16:32.160Z,16.83
2023-01-10T11:19:22.587Z,17.90
2023-01-10T11:22:09.727Z,19.90
2023-01-10T11:24:59.376Z,14.47
2023-01-10T11:27:49.556Z,15.53
2023-01-10T11:30:36.783Z,24.77
2023-01-10T11:33:30.670Z,15.47
2023-01-10T11:36:18.269Z,16.97
2023-01-10T11:39:05.962Z,14.40
2023-01-10T11:41:53.319Z,14.77
2023-01-10T11:44:40.054Z,16.33
2023-01-10T11:47:26.496Z,16.70
2023-01-10T11:50:13.710Z,23.53
2023-01-10T11:53:01.897Z,18.37
2023-01-10T11:55:49.484Z,18.90
2023-01-10T11:58:38.224Z,20.97
2023-01-10T12:01:33.133Z,18.87
2023-01-10T12:04:21.555Z,24.70
2023-01-10T12:07:11.787Z,17.50
2023-01-10T12:10:02.122Z,23.13
2023-01-10T12:12:55.458Z,22.67
2023-01-10T12:15:42.625Z,20.03
2023-01-10T12:18:29.053Z,20.03
2023-01-10T12:21:18.357Z,20.43
2023-01-10T12:24:12.079Z,27.27
2023-01-10T12:27:02.209Z,21.73
2023-01-10T12:29:55.063Z,18.53
2023-01-10T12:32:47.740Z,18.20
2023-01-10T12:35:41.509Z,16.50
2023-01-10T12:38:52.404Z,20.47
2023-01-10T12:42:07.782Z,28.27
2023-01-10T12:45:04.603Z,19.20
2023-01-10T12:48:00.225Z,17.03
2023-01-10T12:50:53.932Z,23.77
2023-01-10T12:53:45.274Z,14.40
2023-01-10T12:56:33.235Z,19.03
2023-01-10T12:59:36.803Z,18.17
2023-01-10T13:02:29.536Z,16.60
2023-01-10T13:05:20.281Z,11.20
2023-01-10T13:08:13.022Z,13.77
2023-01-10T13:11:00.816Z,16.70
2023-01-10T13:13:53.760Z,20.33
2023-01-10T13:16:48.861Z,10.13
2023-01-10T13:19:36.593Z,16.13
2023-01-10T13:22:24.220Z,11.37
2023-01-10T13:25:22.266Z,15.77
2023-01-10T13:28:17.683Z,15.23
2023-01-10T13:31:07.150Z,16.00
2023-01-10T13:33:56.868Z,15.53
2023-01-10T13:36:51.299Z,21.77
2023-01-10T13:39:39.690Z,15.27
2023-01-10T13:42:49.367Z,15.47
2023-01-10T13:45:38.571Z,9.73
2023-01-10T13:48:28.794Z,10.90
2023-01-10T13:51:17.818Z,14.07
2023-01-10T13:54:25.318Z,14.90
2023-01-10T13:57:45.354Z,11.03
2023-01-10T14:01:16.474Z,9.40
2023-01-10T14:04:03.089Z,14.63
2023-01-10T14:06:55.340Z,10.77
2023-01-10T14:09:46.814Z,13.83
2023-01-10T14:12:37.457Z,18.63
2023-01-10T14:15:27.228Z,10.57
2023-01-10T14:18:22.255Z,14.20
2023-01-10T14:21:10.144Z,11.37
2023-01-10T14:23:58.214Z,19.23
2023-01-10T14:26:46.601Z,12.27
2023-01-10T14:29:35.009Z,19.20
2023-01-10T14:32:34.292Z,12.57
2023-01-10T14:35:23.617Z,12.60
2023-01-10T14:38:19.438Z,15.27
2023-01-10T14:41:13.776Z,13.20
2023-01-10T14:44:11.728Z,9.70
2023-01-10T14:47:02.806Z,11.07
2023-01-10T14:49:51.595Z,11.20
2023-01-10T14:52:38.217Z,10.43
2023-01-10T14:55:24.928Z,9.87
2023-01-10T14:58:18.872Z,11.43
2023-01-10T15:01:07.336Z,14.37
2023-01-10T15:03:55.347Z,10.50
2023-01-10T15:06:53.295Z,11.47
2023-01-10T15:09:40.221Z,14.43
2023-01-10T15:12:28.921Z,18.63
2023-01-10T15:15:18.449Z,11.80
2023-01-10T15:18:15.804Z,10.53
2023-01-10T15:21:02.495Z,7.70
2023-01-10T15:23:50.047Z,14.27
2023-01-10T15:26:37.203Z,9.30
2023-01-10T15:29:26.053Z,12.53
2023-01-10T15:32:19.510Z,15.43
2023-01-10T15:35:12.111Z,9.90
2023-01-10T15:38:04.949Z,6.60
2023-01-10T15:40:58.544Z,8.53
2023-01-10T15:43:45.238Z,9.27
2023-01-10T15:46:32.843Z,13.97
2023-01-10T15:49:25.237Z,10.43
2023-01-10T15:52:23.417Z,17.77
2023-01-10T15:55:35.776Z,10.97
2023-01-10T15:58:28.593Z,9.90
2023-01-10T16:01:16.611Z,11.37
2023-01-10T16:04:05.456Z,11.67
2023-01-10T16:07:06.277Z,8.00
2023-01-10T16:09:58.187Z,11.30
2023-01-10T16:13:02.595Z,9.10
2023-01-10T16:15:49.299Z,12.40
2023-01-10T16:18:35.616Z,7.70
2023-01-10T16:21:22.043Z,11.60
2023-01-10T16:24:14.713Z,9.33
2023-01-10T16:27:05.939Z,9.83
2023-01-10T16:29:53.634Z,7.37
2023-01-10T16:32:40.437Z,8.87
2023-01-10T16:35:27.059Z,9.80
2023-01-10T16:38:15.811Z,9.80
2023-01-10T16:41:24.442Z,8.53
2023-01-10T16:44:11.271Z,4.23
2023-01-10T16:46:57.899Z,8.77
2023-01-10T16:49:45.512Z,6.67
2023-01-10T16:52:32.086Z,6.07
2023-01-10T16:55:21.444Z,12.53
2023-01-10T16:58:08.381Z,9.67
2023-01-10T17:00:58.661Z,10.27
2023-01-10T17:03:45.791Z,11.23
2023-01-10T17:06:33.522Z,9.33
2023-01-10T17:09:24.207Z,5.93
2023-01-10T17:12:19.409Z,7.17
2023-01-10T17:15:09.056Z,8.93
2023-01-10T17:17:56.900Z,9.00
2023-01-10T17:20:45.228Z,8.90
2023-01-10T17:23:32.036Z,13.07
2023-01-10T17:26:20.000Z,10.47
2023-01-10T17:29:06.213Z,8.00
2023-01-10T17:31:52.503Z,8.60
2023-01-10T17:34:40.397Z,10.00
2023-01-10T17:37:26.806Z,6.00
2023-01-10T17:40:13.881Z,7.50
2023-01-10T17:43:00.536Z,9.50
2023-01-10T17:45:48.810Z,6.87
2023-01-10T17:48:36.590Z,12.17
2023-01-10T17:51:25.344Z,7.10
2023-01-10T17:54:14.409Z,6.87
2023-01-10T17:57:00.873Z,7.50
2023-01-10T17:59:47.138Z,9.20
2023-01-10T18:02:33.597Z,6.30
2023-01-10T18:05:20.466Z,5.73
2023-01-10T18:08:08.446Z,4.90
2023-01-10T18:11:00.114Z,10.17
2023-01-10T18:13:46.815Z,4.53
2023-01-10T18:16:34.382Z,7.07
2023-01-10T18:19:21.007Z,3.40
2023-01-10T18:22:22.193Z,6.73
2023-01-10T18:25:10.584Z,5.97
2023-01-10T18:27:57.458Z,8.17
2023-01-10T18:30:44.166Z,8.07
2023-01-10T18:33:31.076Z,8.17
2023-01-10T18:36:18.661Z,5.13
2023-01-10T18:39:05.368Z,8.63
2023-01-10T18:41:53.112Z,3.97
2023-01-10T18:44:40.084Z,4.40
2023-01-10T18:47:26.533Z,10.30
2023-01-10T18:50:13.014Z,4.50
2023-01-10T18:53:00.370Z,7.23
2023-01-10T18:55:54.332Z,6.47
2023-01-10T18:58:43.153Z,5.93
2023-01-10T19:01:29.844Z,3.30
2023-01-10T19:04:17.471Z,5.13
2023-01-10T19:07:03.712Z,8.47
2023-01-10T19:09:50.125Z,4.53
2023-01-10T19:12:40.531Z,8.47
2023-01-10T19:15:28.759Z,7.00
2023-01-10T19:18:15.367Z,4.27
2023-01-10T19:21:01.846Z,10.53
2023-01-10T19:23:50.387Z,5.97
2023-01-10T19:26:36.936Z,6.53
2023-01-10T19:29:23.688Z,5.57
2023-01-10T19:32:11.700Z,6.53
2023-01-10T19:34:58.560Z,8.40
2023-01-10T19:37:45.322Z,6.53
2023-01-10T19:40:31.785Z,6.17
2023-01-10T19:43:18.345Z,5.40
2023-01-10T19:46:07.320Z,9.97
2023-01-10T19:48:56.934Z,7.70
2023-01-10T19:51:45.845Z,7.60
2023-01-10T19:54:32.512Z,7.37
2023-01-10T19:57:19.108Z,4.17
2023-01-10T20:00:06.632Z,5.83
2023-01-10T20:02:53.379Z,6.30
2023-01-10T20:05:41.198Z,6.70
2023-01-10T20:08:27.849Z,7.13
2023-01-10T20:11:15.281Z,5.10
2023-01-10T20:14:01.483Z,9.57
2023-01-10T20:16:48.914Z,6.33
2023-01-10T20:19:35.521Z,6.80
2023-01-10T20:22:23.514Z,4.37
2023-01-10T20:25:10.478Z,6.93
2023-01-10T20:27:57.021Z,6.23
2023-01-10T20:30:43.452Z,5.93
2023-01-10T20:33:30.059Z,7.47
2023-01-10T20:36:19.442Z,7.63
2023-01-10T20:39:07.347Z,7.57
2023-01-10T20:41:54.163Z,6.43
2023-01-10T20:44:40.789Z,13.50
2023-01-10T20:47:28.580Z,9.23
2023-01-10T20:50:15.569Z,8.77
2023-01-10T20:53:02.125Z,11.50
2023-01-10T20:55:59.337Z,9.73
2023-01-10T20:58:46.699Z,7.53
2023-01-10T21:01:35.381Z,7.00
2023-01-10T21:04:22.682Z,8.60
2023-01-10T21:07:09.185Z,6.73
2023-01-10T21:09:55.495Z,9.57
2023-01-10T21:12:43.260Z,7.97
2023-01-10T21:15:29.712Z,2.83
2023-01-10T21:18:17.256Z,7.03
2023-01-10T21:21:03.956Z,8.40
2023-01-10T21:23:50.389Z,4.93
2023-01-10T21:26:36.812Z,6.07
2023-01-10T21:29:24.618Z,4.00
2023-01-10T21:32:11.630Z,7.13
2023-01-10T21:34:57.954Z,7.07
2023-01-10T21:37:44.720Z,5.27
2023-01-10T21:40:32.233Z,5.60
2023-01-10T21:43:18.539Z,7.33
2023-01-10T21:46:06.780Z,8.80
2023-01-10T21:48:54.067Z,7.70
2023-01-10T21:51:40.493Z,6.67
2023-01-10T21:54:26.876Z,6.93
2023-01-10T21:57:13.925Z,5.93
2023-01-10T22:00:00.498Z,4.63
2023-01-10T22:02:48.647Z,4.27
2023-01-10T22:05:35.378Z,3.80
2023-01-10T22:08:21.990Z,3.77
2023-01-10T22:11:10.550Z,4.47
2023-01-10T22:13:58.059Z,3.77
2023-01-10T22:16:44.582Z,5.53
2023-01-10T22:19:32.975Z,6.30
2023-01-10T22:22:19.379Z,1.73
2023-01-10T22:25:07.172Z,3.57
2023-01-10T22:27:54.328Z,4.37
2023-01-10T22:30:40.867Z,1.67
2023-01-10T22:33:30.995Z,4.47
2023-01-10T22:36:20.212Z,1.90
2023-01-10T22:39:07.610Z,4.73
2023-01-10T22:41:54.457Z,2.93
2023-01-10T22:44:40.689Z,1.87
2023-01-10T22:47:27.138Z,4.53
2023-01-10T22:50:13.480Z,2.73
2023-01-10T22:53:01.268Z,3.67
2023-01-10T22:55:47.743Z,1.53
2023-01-10T22:58:34.595Z,4.87
2023-01-10T23:01:22.967Z,4.20
2023-01-10T23:04:10.183Z,1.30
2023-01-10T23:06:58.558Z,3.53
2023-01-10T23:09:46.459Z,1.87
2023-01-10T23:12:32.906Z,1.97
2023-01-10T23:15:19.564Z,2.10
2023-01-10T23:18:06.339Z,4.73
2023-01-10T23:20:53.080Z,1.20
2023-01-10T23:23:39.637Z,1.03
2023-01-10T23:26:28.198Z,1.77
2023-01-10T23:29:14.936Z,1.87
2023-01-10T23:32:01.709Z,0.73
2023-01-10T23:34:48.329Z,0.60
2023-01-10T23:37:34.695Z,1.30
2023-01-10T23:40:21.330Z,2.50
2023-01-10T23:43:09.356Z,1.00
2023-01-10T23:45:55.847Z,0.63
2023-01-10T23:48:43.246Z,0.73
2023-01-10T23:51:30.027Z,1.40
2023-01-10T23:54:17.374Z,1.93
2023-01-10T23:57:03.895Z,2.20
2023-01-10T23:59:51.623Z,1.27
